Terminal Aerodrome Forecast
Issued by NWS

Home | Current Version | Previous Version | Text Only | Print | Product List | Glossary On
Versions: 1 2 3 4 5 6 7 8 9 10 11 12 13 14 15 16 17 18 19 20 21 22 23 24 25 26 27
000
FTUS43 KAPX 241745
TAFMBL
TAF
KMBL 241745Z 2418/2518 05011G20KT 6SM -DZRA SCT008 OVC015
      TEMPO 2418/2420 2SM -DZRA BR OVC008
     FM242000 06012G21KT 5SM -DZRA BR OVC008
     FM250000 36011G20KT 3SM -RA BR OVC008
     FM250700 34010G21KT 4SM -SN OVC003
     FM251100 31013G26KT 2SM -SN OVC008
     FM251200 31014G27KT 1 1/2SM -SHSN BLSN OVC010=

USA.gov is the U.S. government's official web portal to all federal, state and local government web resources and services.